Time;durP1;ratioP1;P1;durP2;ratioP2;P2;SDS_P1;SDS_P2;PMS_P1;PMS_P2;Temp;Humidity;BMP_temperature;BMP_pressure;BME280_temperature;BME280_humidity;BME280_pressure;Samples;Min_cycle;Max_cycle;Signal;HPM_P1;HPM_P2
2022/06/11 00:02:21;;;;;;;5.25;5.05;;;;;;;19.28;80.04;101653.13;6013744;23;20011;-72
2022/06/11 00:04:48;;;;;;;5.70;5.40;;;;;;;19.28;79.71;101655.78;6040365;23;20035;-76
2022/06/11 00:07:19;;;;;;;5.22;5.03;;;;;;;18.23;79.92;101487.00;6021580;23;20054;-75
2022/06/11 00:09:46;;;;;;;5.70;5.40;;;;;;;19.05;80.20;101625.56;5998992;23;20494;-76
2022/06/11 00:12:13;;;;;;;5.38;5.18;;;;;;;18.95;81.14;101606.78;6015093;23;20027;-73
2022/06/11 00:14:42;;;;;;;5.38;5.18;;;;;;;19.19;81.35;101659.16;6021591;23;20375;-71
2022/06/11 00:17:12;;;;;;;5.78;5.35;;;;;;;18.99;82.02;101626.88;6014397;23;20345;-73
2022/06/11 00:19:40;;;;;;;5.35;5.15;;;;;;;19.19;81.75;101645.84;5996612;23;20085;-73
2022/06/11 00:22:07;;;;;;;6.28;5.97;;;;;;;18.93;81.79;101616.69;6015703;23;20101;-74
2022/06/11 00:24:34;;;;;;;5.80;5.50;;;;;;;19.20;81.38;101650.19;5997134;23;20022;-73
2022/06/11 00:27:01;;;;;;;6.68;6.38;;;;;;;19.20;81.75;101648.38;6025899;23;20030;-75
2022/06/11 00:29:30;;;;;;;5.53;5.30;;;;;;;19.16;82.46;101648.72;5993894;23;20031;-74
2022/06/11 00:31:57;;;;;;;5.30;5.10;;;;;;;19.13;82.49;101649.81;6027071;23;20013;-75
2022/06/11 00:34:24;;;;;;;5.47;5.20;;;;;;;18.95;83.09;101620.06;5990841;23;20034;-72
2022/06/11 00:36:51;;;;;;;6.95;6.65;;;;;;;19.12;82.63;101653.41;6043496;23;20014;-75
2022/06/11 00:39:20;;;;;;;5.40;5.20;;;;;;;19.10;83.39;101656.22;6023969;23;20086;-73
2022/06/11 00:41:51;;;;;;;5.45;5.15;;;;;;;19.12;83.32;101653.41;6050418;23;20082;-76
2022/06/11 00:44:18;;;;;;;5.20;5.00;;;;;;;18.95;83.85;101630.72;6023110;23;20322;-74
2022/06/11 00:46:52;;;;;;;5.63;5.35;;;;;;;18.85;84.44;101616.38;6024868;23;20038;-73
2022/06/11 00:49:41;;;;;;;5.47;5.25;;;;;;;19.04;84.65;101646.00;6019823;23;20042;-72
2022/06/11 00:52:24;;;;;;;6.50;6.20;;;;;;;18.93;84.99;101633.47;6053229;23;20030;-75
2022/06/11 00:54:58;;;;;;;6.15;5.88;;;;;;;19.01;85.19;101648.03;6025421;23;20416;-75
2022/06/11 00:57:29;;;;;;;5.85;5.55;;;;;;;18.99;85.38;101644.66;6054797;23;20015;-73
2022/06/11 01:00:00;;;;;;;7.25;6.85;;;;;;;18.95;86.13;101640.50;6030975;23;20085;-74
2022/06/11 01:02:27;;;;;;;17.77;16.88;;;;;;;17.96;85.83;101492.47;5960817;23;20029;-76
2022/06/11 01:04:57;;;;;;;6.28;5.97;;;;;;;18.95;85.98;101638.69;6013514;23;20018;-72
2022/06/11 01:07:42;;;;;;;5.35;5.15;;;;;;;18.88;87.28;101642.75;6056798;23;20054;-73
2022/06/11 01:10:20;;;;;;;5.50;5.20;;;;;;;18.86;86.87;101652.66;6030198;23;20018;-74
2022/06/11 01:12:47;;;;;;;5.38;5.18;;;;;;;18.88;87.35;101648.06;6053872;23;20093;-74
2022/06/11 01:15:16;;;;;;;5.45;5.18;;;;;;;18.86;88.30;101647.31;6029745;23;20439;-74
2022/06/11 01:17:45;;;;;;;5.40;5.20;;;;;;;18.84;88.41;101650.13;6044194;23;20288;-76
2022/06/11 01:20:31;;;;;;;5.63;5.43;;;;;;;18.84;88.81;101649.25;6026993;23;20018;-75
2022/06/11 01:23:47;;;;;;;6.70;6.40;;;;;;;18.65;88.56;101617.78;6020684;23;20055;-75
2022/06/11 01:26:49;;;;;;;6.15;5.85;;;;;;;18.56;88.73;101610.47;6005881;23;20441;-74
2022/06/11 01:29:37;;;;;;;5.80;5.50;;;;;;;18.77;88.70;101640.84;6050217;23;20026;-74
2022/06/11 01:32:25;;;;;;;6.90;6.60;;;;;;;18.48;88.98;101595.06;6023892;23;20023;-73
2022/06/11 01:35:14;;;;;;;6.85;6.55;;;;;;;18.72;89.35;101635.84;6018550;23;20034;-70
2022/06/11 01:38:12;;;;;;;5.28;5.07;;;;;;;18.65;90.62;101637.25;5965346;23;20020;-69
2022/06/11 01:40:47;;;;;;;5.10;4.90;;;;;;;18.61;91.36;101641.09;6009910;23;20030;-70
2022/06/11 01:43:24;;;;;;;5.53;5.30;;;;;;;18.48;91.46;101621.63;6024465;23;20051;-67
2022/06/11 01:45:58;;;;;;;6.85;6.55;;;;;;;18.57;92.27;101638.75;5969912;23;20159;-70
2022/06/11 01:48:28;;;;;;;5.40;5.20;;;;;;;18.57;92.65;101644.91;6027708;23;20029;-70
2022/06/11 01:51:03;;;;;;;6.78;6.47;;;;;;;18.54;92.11;101637.13;5991837;23;20020;-67
2022/06/11 01:54:12;;;;;;;5.63;5.40;;;;;;;18.55;92.39;101644.19;6015915;23;20012;-70
2022/06/11 01:57:07;;;;;;;5.38;5.18;;;;;;;18.43;92.29;101618.47;5998801;23;20031;-69
2022/06/11 01:59:55;;;;;;;5.25;5.05;;;;;;;18.61;91.00;101646.41;5979253;23;20493;-69
2022/06/11 02:02:41;;;;;;;5.60;5.40;;;;;;;18.59;91.35;101640.34;6018704;23;20103;-69
2022/06/11 02:05:19;;;;;;;5.30;5.10;;;;;;;18.62;90.74;101644.59;6020812;23;20015;-69
2022/06/11 02:08:02;;;;;;;6.60;6.20;;;;;;;18.59;91.18;101645.66;5993681;23;20031;-69
2022/06/11 02:10:38;;;;;;;5.20;5.00;;;;;;;18.60;90.22;101650.03;6023772;23;20049;-69
2022/06/11 02:13:10;;;;;;;7.28;6.97;;;;;;;18.43;90.75;101623.78;6010949;23;20070;-69
2022/06/11 02:15:53;;;;;;;5.30;5.10;;;;;;;18.56;91.01;101648.53;6000274;23;20146;-69
2022/06/11 02:18:23;;;;;;;5.55;5.35;;;;;;;18.51;91.52;101650.66;5988712;23;20023;-70
2022/06/11 02:20:57;;;;;;;5.57;5.32;;;;;;;18.45;91.59;101654.59;5995291;23;20028;-69
2022/06/11 02:23:29;;;;;;;5.40;5.20;;;;;;;18.36;91.78;101654.41;6020098;23;20096;-67
2022/06/11 02:26:01;;;;;;;8.40;7.35;;;;;;;18.20;92.10;101643.97;5989156;23;20043;-71
2022/06/11 02:28:33;;;;;;;5.60;5.30;;;;;;;17.98;92.35;101632.19;6023609;23;20732;-71
2022/06/11 02:31:06;;;;;;;6.72;6.43;;;;;;;18.01;92.83;101661.19;5984847;23;20027;-71
2022/06/11 02:33:35;;;;;;;5.55;5.32;;;;;;;17.87;93.96;101658.63;6020365;23;20034;-71
2022/06/11 02:36:15;;;;;;;6.78;6.47;;;;;;;17.74;94.71;101656.78;6009675;23;20452;-73
2022/06/11 02:38:42;;;;;;;5.68;5.38;;;;;;;17.65;96.52;101661.84;6053241;23;20026;-74
2022/06/11 02:41:31;;;;;;;6.65;6.35;;;;;;;17.55;96.50;101653.63;6025971;23;20030;-71
2022/06/11 02:43:58;;;;;;;7.03;6.63;;;;;;;17.01;97.32;101590.84;6047802;23;20508;-69
2022/06/11 02:46:43;;;;;;;5.40;5.10;;;;;;;17.21;98.94;101647.88;6025984;23;20026;-69
2022/06/11 02:49:32;;;;;;;6.03;5.72;;;;;;;17.22;99.60;101664.66;6019392;23;20021;-71
2022/06/11 02:52:03;;;;;;;6.68;6.38;;;;;;;17.14;100.00;101667.81;6017842;23;20023;-68
2022/06/11 02:54:29;;;;;;;5.50;5.30;;;;;;;17.04;100.00;101670.22;6055608;23;20026;-68
2022/06/11 02:56:58;;;;;;;6.78;6.45;;;;;;;17.01;100.00;101669.53;6020332;23;20472;-71
2022/06/11 02:59:27;;;;;;;5.30;5.10;;;;;;;15.87;100.00;101499.94;6054594;23;20036;-73
2022/06/11 03:01:55;;;;;;;6.18;5.88;;;;;;;16.89;100.00;101668.53;6046933;23;20014;-72
2022/06/11 03:04:24;;;;;;;5.20;5.00;;;;;;;16.73;100.00;101655.34;6062847;23;20432;-71
2022/06/11 03:06:51;;;;;;;5.75;5.50;;;;;;;16.77;100.00;101671.91;6023480;23;20082;-75
2022/06/11 03:09:26;;;;;;;5.07;4.88;;;;;;;16.70;100.00;101674.09;6053751;23;20014;-75
2022/06/11 03:11:54;;;;;;;6.78;6.47;;;;;;;16.65;100.00;101678.84;6013306;23;20033;-69
2022/06/11 03:14:20;;;;;;;5.30;5.10;;;;;;;16.48;100.00;101650.75;6049372;23;20045;-74
2022/06/11 03:16:47;;;;;;;5.20;5.00;;;;;;;16.39;100.00;101640.69;6053262;23;20534;-67
2022/06/11 03:19:14;;;;;;;5.50;5.30;;;;;;;16.52;100.00;101678.75;6046655;23;20018;-72
2022/06/11 03:21:41;;;;;;;5.35;5.15;;;;;;;16.49;100.00;101674.47;6024818;23;20113;-72
2022/06/11 03:24:08;;;;;;;6.43;6.13;;;;;;;16.46;100.00;101681.78;6052905;23;20358;-71
2022/06/11 03:26:34;;;;;;;5.35;5.15;;;;;;;16.42;100.00;101677.63;6020874;23;20315;-73
2022/06/11 03:29:02;;;;;;;7.05;6.75;;;;;;;16.42;100.00;101681.13;6055620;23;20162;-67
2022/06/11 03:31:29;;;;;;;5.55;5.15;;;;;;;16.45;100.00;101675.59;6029760;23;20019;-67
2022/06/11 03:33:56;;;;;;;6.82;6.53;;;;;;;16.34;100.00;101660.38;6040026;23;20018;-67
2022/06/11 03:36:22;;;;;;;5.20;5.00;;;;;;;16.25;100.00;101642.38;6026760;23;20085;-66
2022/06/11 03:38:49;;;;;;;5.47;5.25;;;;;;;16.44;100.00;101681.03;6022961;23;20030;-72
2022/06/11 03:41:17;;;;;;;5.50;5.20;;;;;;;16.45;100.00;101683.56;6028176;23;21221;-67
2022/06/11 03:43:43;;;;;;;5.43;5.22;;;;;;;16.43;100.00;101685.44;6052048;23;20081;-69
2022/06/11 03:46:10;;;;;;;5.20;5.00;;;;;;;16.41;100.00;101675.91;6045413;23;20042;-69
2022/06/11 03:48:38;;;;;;;5.22;5.03;;;;;;;16.46;100.00;101684.44;6024001;23;20034;-69
2022/06/11 03:51:06;;;;;;;6.80;6.50;;;;;;;16.49;100.00;101684.22;6049588;23;20073;-73
2022/06/11 03:53:35;;;;;;;5.10;4.90;;;;;;;16.49;100.00;101684.22;6026889;23;20054;-70
2022/06/11 03:56:04;;;;;;;6.35;6.05;;;;;;;16.56;100.00;101690.88;6019775;23;20019;-66
2022/06/11 03:58:33;;;;;;;5.32;5.03;;;;;;;16.58;100.00;101696.94;6029706;23;20037;-67
2022/06/11 04:01:14;;;;;;;6.82;6.38;;;;;;;16.58;100.00;101677.50;6008460;23;20462;-67
2022/06/11 04:03:58;;;;;;;5.10;4.90;;;;;;;16.46;100.00;101647.34;6048840;23;20026;-66
2022/06/11 04:06:28;;;;;;;5.50;5.20;;;;;;;16.75;100.00;101695.88;5999762;23;20055;-67
2022/06/11 04:08:56;;;;;;;6.25;5.95;;;;;;;16.80;100.00;101700.88;6049469;23;20384;-72
2022/06/11 04:11:22;;;;;;;5.10;4.90;;;;;;;16.91;100.00;101698.44;6053981;23;20039;-72
2022/06/11 04:13:50;;;;;;;5.32;5.03;;;;;;;17.18;100.00;101694.97;5996947;23;20031;-67
2022/06/11 04:16:22;;;;;;;5.25;5.05;;;;;;;17.43;100.00;101703.06;6053194;23;20018;-72
2022/06/11 04:18:50;;;;;;;5.47;5.22;;;;;;;17.87;99.09;101663.94;6022768;23;20037;-74
2022/06/11 04:21:19;;;;;;;5.20;5.00;;;;;;;18.56;94.82;101700.84;6045436;23;20085;-72
2022/06/11 04:23:48;;;;;;;5.38;5.18;;;;;;;19.57;88.96;101700.72;6029687;23;20022;-67
2022/06/11 04:26:19;;;;;;;5.30;5.10;;;;;;;20.81;82.06;101711.72;6053985;23;20042;-67
2022/06/11 04:28:47;;;;;;;5.57;5.28;;;;;;;21.71;76.88;101693.69;6029702;23;20080;-67
2022/06/11 04:31:15;;;;;;;5.60;5.40;;;;;;;22.09;72.04;101699.41;6053058;23;20476;-68
2022/06/11 04:33:44;;;;;;;5.70;5.40;;;;;;;21.90;70.99;101719.69;6023935;23;20017;-69
2022/06/11 04:36:11;;;;;;;6.03;5.72;;;;;;;22.32;72.38;101712.69;6045872;23;20010;-67
2022/06/11 04:38:38;;;;;;;5.68;5.40;;;;;;;23.02;69.79;101689.63;6000648;23;20038;-71
2022/06/11 04:41:06;;;;;;;7.00;6.70;;;;;;;22.72;67.54;101725.28;6006748;23;20022;-72
2022/06/11 04:43:33;;;;;;;5.43;5.22;;;;;;;22.11;70.81;101714.38;5998271;23;20031;-73
2022/06/11 04:46:00;;;;;;;6.85;6.55;;;;;;;21.30;73.15;101713.94;6037097;23;20022;-71
2022/06/11 04:48:28;;;;;;;5.38;5.18;;;;;;;20.69;76.13;101713.53;5999673;23;20034;-72
2022/06/11 04:50:55;;;;;;;6.43;6.13;;;;;;;19.88;80.74;101702.78;6023238;23;20035;-70
2022/06/11 04:53:21;;;;;;;5.93;5.53;;;;;;;19.51;84.79;101713.53;5974869;23;20478;-67
2022/06/11 04:55:48;;;;;;;5.25;5.05;;;;;;;19.26;86.97;101690.53;6009364;23;20035;-67
2022/06/11 04:58:15;;;;;;;5.38;5.18;;;;;;;19.33;87.29;101710.41;6023898;23;20046;-67
2022/06/11 05:00:41;;;;;;;5.88;5.57;;;;;;;19.23;88.06;101697.88;6014176;23;20018;-67
2022/06/11 05:03:08;;;;;;;5.93;5.63;;;;;;;19.43;88.37;101720.38;6031366;23;20022;-68
2022/06/11 05:05:35;;;;;;;5.30;5.10;;;;;;;19.28;87.24;101674.44;6008403;23;20023;-67
2022/06/11 05:08:02;;;;;;;6.63;6.32;;;;;;;19.61;87.17;101723.50;6024555;23;20015;-73
2022/06/11 05:10:30;;;;;;;5.38;5.18;;;;;;;19.61;85.91;101718.19;6002545;23;20023;-68
2022/06/11 05:13:06;;;;;;;5.60;5.30;;;;;;;19.68;85.72;101727.38;6027707;23;20023;-67
2022/06/11 05:15:37;;;;;;;5.47;5.18;;;;;;;19.64;86.25;101725.91;6027854;23;20119;-68
2022/06/11 05:18:03;;;;;;;7.88;7.25;;;;;;;19.59;86.80;101704.13;5991747;23;20386;-68
2022/06/11 05:20:30;;;;;;;5.45;5.20;;;;;;;18.91;85.07;101599.97;6030459;23;20066;-69
2022/06/11 05:22:56;;;;;;;7.10;6.75;;;;;;;19.45;84.87;101716.63;5991950;23;20090;-67
2022/06/11 05:25:23;;;;;;;5.47;5.28;;;;;;;19.63;85.97;101729.56;6028056;23;20029;-73
2022/06/11 05:27:49;;;;;;;5.50;5.28;;;;;;;19.88;84.89;101725.94;5999761;23;20043;-72
2022/06/11 05:30:24;;;;;;;5.32;5.03;;;;;;;20.12;83.01;101736.53;6030146;23;20485;-71
2022/06/11 05:32:51;;;;;;;5.47;5.20;;;;;;;20.27;82.70;101732.72;5989867;23;20051;-71
2022/06/11 05:35:21;;;;;;;5.63;5.30;;;;;;;20.35;82.93;101744.59;6025251;23;20010;-74
2022/06/11 05:37:50;;;;;;;5.40;5.20;;;;;;;19.61;81.58;101612.50;5995520;23;20082;-69
2022/06/11 05:40:19;;;;;;;5.43;5.22;;;;;;;20.37;81.92;101730.19;6019263;23;20111;-67
2022/06/11 05:42:47;;;;;;;5.30;5.10;;;;;;;20.24;82.32;101708.94;5975202;23;20449;-68
2022/06/11 05:45:20;;;;;;;5.75;5.47;;;;;;;20.32;81.07;101737.69;6017127;23;20527;-69
2022/06/11 05:47:49;;;;;;;5.70;5.40;;;;;;;20.21;82.32;101738.53;5991928;23;20027;-68
2022/06/11 05:50:21;;;;;;;5.20;5.00;;;;;;;20.20;82.51;101733.31;6020806;23;20113;-70
2022/06/11 05:52:48;;;;;;;5.53;5.32;;;;;;;20.12;81.51;101718.72;5991240;23;20078;-66
2022/06/11 05:55:17;;;;;;;7.00;6.55;;;;;;;20.35;81.52;101740.13;6023542;23;20094;-67
2022/06/11 05:57:47;;;;;;;5.63;5.32;;;;;;;20.24;80.97;101734.75;5997981;23;20086;-68
2022/06/11 06:00:16;;;;;;;5.45;5.25;;;;;;;20.38;82.03;101736.38;6009734;23;20022;-73
2022/06/11 06:02:44;;;;;;;5.40;5.20;;;;;;;20.18;82.85;101711.25;6025753;23;20277;-70
2022/06/11 06:05:13;;;;;;;5.35;5.15;;;;;;;20.34;82.14;101711.75;5993119;23;20319;-70
2022/06/11 06:07:40;;;;;;;5.43;5.22;;;;;;;20.29;81.50;101684.63;5993617;23;20015;-70
2022/06/11 06:10:07;;;;;;;5.93;5.63;;;;;;;20.82;80.88;101732.91;6024095;23;20256;-71
2022/06/11 06:12:35;;;;;;;5.22;5.03;;;;;;;20.89;79.67;101722.63;5989594;23;20024;-68
2022/06/11 06:15:09;;;;;;;6.95;6.65;;;;;;;20.90;78.75;101714.47;6020312;23;20475;-69
2022/06/11 06:17:39;;;;;;;5.82;5.43;;;;;;;21.19;78.38;101737.13;5998199;23;20082;-69
2022/06/11 06:20:13;;;;;;;6.60;6.30;;;;;;;21.26;76.99;101717.81;5992483;23;20027;-74
2022/06/11 06:22:40;;;;;;;5.90;5.50;;;;;;;21.19;76.41;101707.75;5994139;23;20027;-75
2022/06/11 06:25:09;;;;;;;5.88;5.57;;;;;;;21.24;74.76;101748.28;5989370;23;20212;-72
2022/06/11 06:27:35;;;;;;;6.20;5.70;;;;;;;21.61;75.70;101747.97;6002237;23;20492;-76
2022/06/11 06:30:02;;;;;;;6.82;6.53;;;;;;;21.87;74.18;101752.03;5987238;23;20036;-69
2022/06/11 06:32:28;;;;;;;5.90;5.60;;;;;;;21.97;74.07;101745.91;6009038;23;20015;-67
2022/06/11 06:34:55;;;;;;;6.90;6.60;;;;;;;22.01;71.82;101758.03;6013874;23;20104;-68
2022/06/11 06:37:21;;;;;;;5.45;5.25;;;;;;;22.15;70.33;101757.75;6018190;23;20022;-69
2022/06/11 06:39:48;;;;;;;5.70;5.40;;;;;;;21.38;73.36;101733.81;5987849;23;20445;-69
2022/06/11 06:42:14;;;;;;;6.03;5.72;;;;;;;21.91;73.59;101758.81;6020411;23;20055;-67
2022/06/11 06:44:41;;;;;;;5.10;4.90;;;;;;;22.32;72.18;101763.50;5994171;23;20026;-68
2022/06/11 06:47:08;;;;;;;6.20;5.90;;;;;;;22.09;71.14;101758.22;6014374;23;20019;-68
2022/06/11 06:49:35;;;;;;;6.20;5.85;;;;;;;21.98;72.53;101761.81;6010181;23;20039;-69
2022/06/11 06:52:02;;;;;;;6.88;6.57;;;;;;;22.24;71.07;101743.59;6020032;23;20018;-74
2022/06/11 06:54:28;;;;;;;5.47;5.28;;;;;;;22.36;70.91;101768.47;6014156;23;20529;-74
2022/06/11 06:56:54;;;;;;;6.43;6.13;;;;;;;22.51;71.11;101763.59;6016796;23;20085;-73
2022/06/11 06:59:22;;;;;;;5.75;5.40;;;;;;;22.55;68.37;101705.34;6026308;23;20097;-71
2022/06/11 07:01:51;;;;;;;5.72;5.43;;;;;;;22.76;67.26;101738.25;6016180;23;20021;-74
2022/06/11 07:04:18;;;;;;;5.82;5.53;;;;;;;22.85;66.70;101748.16;6022172;23;20025;-73
2022/06/11 07:06:52;;;;;;;6.35;6.07;;;;;;;23.04;67.35;101768.81;6002505;23;20022;-71
2022/06/11 07:09:18;;;;;;;5.53;5.32;;;;;;;22.91;67.77;101776.19;6021681;23;20026;-73
2022/06/11 07:11:45;;;;;;;5.70;5.40;;;;;;;22.70;65.71;101755.69;6007307;23;20098;-73
2022/06/11 07:14:12;;;;;;;5.60;5.35;;;;;;;21.83;67.41;101659.72;6020051;23;20460;-67
2022/06/11 07:16:43;;;;;;;5.72;5.43;;;;;;;22.20;68.64;101742.13;5995552;23;20120;-67
2022/06/11 07:19:15;;;;;;;5.53;5.32;;;;;;;23.10;66.77;101776.31;6013149;23;20031;-68
2022/06/11 07:21:47;;;;;;;5.45;5.22;;;;;;;23.46;65.77;101782.06;6017623;23;20127;-65
2022/06/11 07:24:22;;;;;;;5.93;5.63;;;;;;;22.90;65.54;101737.03;5990736;23;20099;-68
2022/06/11 07:27:02;;;;;;;5.88;5.57;;;;;;;23.36;65.71;101766.97;5997964;23;20015;-68
2022/06/11 07:29:32;;;;;;;5.47;5.20;;;;;;;23.12;66.51;101765.47;5995512;23;20583;-71
2022/06/11 07:32:04;;;;;;;7.20;6.88;;;;;;;23.50;65.58;101774.59;6018048;23;20062;-67
2022/06/11 07:34:30;;;;;;;5.90;5.60;;;;;;;22.70;67.40;101769.06;6024445;23;20133;-68
2022/06/11 07:36:58;;;;;;;7.07;6.78;;;;;;;23.17;67.06;101767.72;6019589;23;20082;-68
2022/06/11 07:39:25;;;;;;;5.50;5.30;;;;;;;22.62;69.14;101752.84;6056169;23;20297;-69
2022/06/11 07:41:51;;;;;;;5.85;5.57;;;;;;;23.39;67.37;101756.78;6023877;23;20007;-75
2022/06/11 07:44:18;;;;;;;5.90;5.60;;;;;;;24.01;64.34;101772.66;6050425;23;20034;-71
2022/06/11 07:46:44;;;;;;;5.60;5.25;;;;;;;24.37;61.89;101752.28;6029070;23;20034;-68
2022/06/11 07:49:12;;;;;;;5.55;5.32;;;;;;;24.04;63.06;101775.94;6047734;23;20509;-68
2022/06/11 07:51:39;;;;;;;5.63;5.40;;;;;;;23.45;64.27;101766.09;6009830;23;20105;-68
2022/06/11 07:54:05;;;;;;;6.75;6.45;;;;;;;23.70;64.88;101767.44;6047460;23;20050;-71
2022/06/11 07:56:32;;;;;;;5.93;5.63;;;;;;;23.69;63.21;101771.06;6038010;23;20019;-71
2022/06/11 07:58:58;;;;;;;6.95;6.65;;;;;;;23.70;63.93;101765.59;6045980;23;20109;-67
2022/06/11 08:01:25;;;;;;;5.80;5.50;;;;;;;23.81;64.24;101769.97;6021443;23;20027;-73
2022/06/11 08:03:52;;;;;;;6.00;5.70;;;;;;;23.82;63.41;101784.25;6051736;23;20042;-75
2022/06/11 08:06:18;;;;;;;5.68;5.45;;;;;;;23.56;64.10;101757.13;6021432;23;20022;-74
2022/06/11 08:08:45;;;;;;;5.80;5.50;;;;;;;23.50;64.54;101785.31;6054162;23;20024;-71
2022/06/11 08:11:12;;;;;;;5.55;5.32;;;;;;;23.72;63.23;101784.22;5996664;23;20038;-72
2022/06/11 08:13:38;;;;;;;5.95;5.65;;;;;;;23.39;63.81;101739.88;6048597;23;20027;-73
2022/06/11 08:16:05;;;;;;;6.88;6.57;;;;;;;23.38;64.75;101787.25;6022149;23;20011;-73
2022/06/11 08:18:32;;;;;;;5.80;5.40;;;;;;;23.77;65.11;101787.34;6048462;23;20015;-69
2022/06/11 08:20:59;;;;;;;7.60;7.18;;;;;;;23.77;61.77;101771.25;6026188;23;20330;-69
2022/06/11 08:23:26;;;;;;;6.00;5.75;;;;;;;23.80;60.69;101768.31;6044884;23;20042;-73
2022/06/11 08:25:53;;;;;;;7.22;6.82;;;;;;;23.59;63.07;101788.97;6007347;23;20048;-74
2022/06/11 08:28:20;;;;;;;6.00;5.70;;;;;;;23.86;61.65;101796.41;6047930;23;20110;-68
2022/06/11 08:30:47;;;;;;;6.00;5.70;;;;;;;24.08;60.60;101774.66;6023496;23;20035;-69
2022/06/11 08:33:14;;;;;;;6.50;6.10;;;;;;;24.09;59.64;101759.41;6055835;23;20264;-69
2022/06/11 08:35:41;;;;;;;5.43;5.22;;;;;;;24.66;56.46;101803.25;6021794;23;20026;-69
2022/06/11 08:38:08;;;;;;;6.25;5.95;;;;;;;24.43;57.57;101800.00;6043733;23;20460;-74
2022/06/11 08:40:44;;;;;;;5.80;5.45;;;;;;;23.89;58.84;101774.66;6018399;23;20027;-72
2022/06/11 08:43:16;;;;;;;5.57;5.38;;;;;;;24.12;58.37;101804.72;6019591;23;20015;-69
2022/06/11 08:46:01;;;;;;;6.32;6.03;;;;;;;23.98;57.88;101797.09;6021603;23;20042;-70
2022/06/11 08:48:37;;;;;;;5.80;5.50;;;;;;;23.72;58.24;101805.66;6045559;23;20039;-67
2022/06/11 08:51:11;;;;;;;6.85;6.55;;;;;;;23.47;59.02;101805.19;6018382;23;20042;-70
2022/06/11 08:53:39;;;;;;;5.30;5.10;;;;;;;23.55;60.40;101803.66;6051717;23;20037;-75
2022/06/11 08:56:15;;;;;;;6.65;6.25;;;;;;;23.54;60.66;101807.31;6035793;23;20026;-72
2022/06/11 08:59:09;;;;;;;5.28;5.07;;;;;;;23.41;60.62;101744.09;6034710;23;20394;-67
2022/06/11 09:02:11;;;;;;;5.70;5.40;;;;;;;24.75;56.44;101792.63;6050795;23;20260;-72
2022/06/11 09:05:20;;;;;;;5.10;4.90;;;;;;;24.54;54.88;101800.91;6041666;23;20229;-70
2022/06/11 09:08:24;;;;;;;5.40;5.20;;;;;;;24.44;54.66;101790.16;5990522;23;20026;-71
2022/06/11 09:11:12;;;;;;;5.63;5.38;;;;;;;24.68;56.45;101777.13;6026571;23;20026;-70
2022/06/11 09:14:02;;;;;;;5.70;5.40;;;;;;;24.42;57.09;101792.97;6036983;23;20105;-67
2022/06/11 09:16:50;;;;;;;5.60;5.40;;;;;;;24.66;56.72;101789.84;6022171;23;20015;-67
2022/06/11 09:19:38;;;;;;;5.30;5.10;;;;;;;24.47;57.75;101782.63;6049047;23;20058;-67
2022/06/11 09:22:14;;;;;;;6.45;6.15;;;;;;;24.52;56.44;101792.97;5993577;23;20024;-68
2022/06/11 09:25:09;;;;;;;5.50;5.20;;;;;;;24.57;57.23;101784.47;6051314;23;20455;-69
2022/06/11 09:27:48;;;;;;;5.57;5.30;;;;;;;24.39;55.81;101765.56;5980795;23;20432;-68
2022/06/11 09:30:26;;;;;;;5.47;5.18;;;;;;;24.82;54.90;101745.41;6025174;23;20031;-72
2022/06/11 09:33:01;;;;;;;6.13;5.82;;;;;;;25.53;54.66;101787.75;6043751;23;20007;-73
2022/06/11 09:35:31;;;;;;;5.80;5.50;;;;;;;25.87;54.28;101787.06;6031853;23;20315;-70
2022/06/11 09:38:26;;;;;;;6.82;6.53;;;;;;;26.09;52.82;101785.78;6053789;23;20016;-72
2022/06/11 09:41:27;;;;;;;6.55;6.25;;;;;;;26.58;49.15;101788.00;5997481;23;20011;-67
2022/06/11 09:44:19;;;;;;;6.82;6.53;;;;;;;26.89;50.08;101787.53;6045751;23;20042;-65
2022/06/11 09:46:59;;;;;;;5.70;5.40;;;;;;;27.06;48.95;101765.03;6012382;23;20105;-72
2022/06/11 09:49:50;;;;;;;5.50;5.30;;;;;;;26.72;49.04;101784.75;6049117;23;20668;-72
2022/06/11 09:52:27;;;;;;;5.82;5.53;;;;;;;25.64;51.86;101762.50;6022982;23;20011;-72
2022/06/11 09:54:57;;;;;;;6.18;5.88;;;;;;;24.61;54.48;101754.50;6051480;23;20089;-73
2022/06/11 09:57:41;;;;;;;5.90;5.60;;;;;;;24.22;57.89;101786.78;6042603;23;20014;-72
2022/06/11 10:00:30;;;;;;;6.25;5.95;;;;;;;24.96;56.60;101782.53;6039343;23;20124;-74
2022/06/11 10:03:35;;;;;;;6.88;6.57;;;;;;;25.34;54.97;101791.41;6032847;23;20081;-73
2022/06/11 10:06:13;;;;;;;6.88;6.57;;;;;;;25.65;52.16;101796.44;6045592;23;20022;-74
2022/06/11 10:08:45;;;;;;;5.57;5.30;;;;;;;25.18;51.72;101767.00;6045907;23;20010;-74
2022/06/11 10:11:30;;;;;;;5.75;5.45;;;;;;;24.68;56.09;101803.94;6018315;23;20077;-72
2022/06/11 10:14:43;;;;;;;6.40;6.10;;;;;;;25.10;55.17;101802.69;6048667;23;20501;-74
2022/06/11 10:16:58;;;;;;;5.85;5.55;;;;;;;25.37;53.36;101790.25;6012958;23;20589;-74
2022/06/11 10:19:33;;;;;;;6.32;5.95;;;;;;;25.56;53.15;101795.53;6055089;23;20034;-73
2022/06/11 10:22:23;;;;;;;7.07;6.70;;;;;;;25.47;54.44;101794.56;6019996;23;20010;-74
2022/06/11 10:25:17;;;;;;;6.28;5.97;;;;;;;25.51;51.69;101791.59;6047128;23;20021;-76
2022/06/11 10:27:58;;;;;;;5.78;5.47;;;;;;;25.84;51.09;101777.47;6032374;23;20082;-72
2022/06/11 10:30:31;;;;;;;5.78;5.47;;;;;;;25.46;54.62;101787.50;6062380;23;20032;-73
2022/06/11 10:33:00;;;;;;;7.25;6.85;;;;;;;25.92;53.13;101749.84;6020077;23;20033;-75
2022/06/11 10:35:31;;;;;;;6.00;5.70;;;;;;;26.11;49.94;101791.03;6057996;23;20464;-73
2022/06/11 10:38:06;;;;;;;6.82;6.53;;;;;;;25.17;53.47;101787.63;6050646;23;20276;-75
2022/06/11 10:40:39;;;;;;;6.40;6.00;;;;;;;25.38;54.54;101794.63;6037817;23;20030;-74
2022/06/11 10:43:32;;;;;;;7.00;6.68;;;;;;;26.11;50.42;101796.41;6022790;23;20025;-71
2022/06/11 10:46:00;;;;;;;;;;;;;;;25.72;50.24;101789.47;6018541;23;20060;-73
2022/06/11 10:48:33;;;;;;;5.93;5.63;;;;;;;25.29;53.32;101769.50;6028317;23;20298;-74
2022/06/11 10:51:12;;;;;;;6.93;6.53;;;;;;;25.99;51.70;101761.66;6021059;23;20179;-72
2022/06/11 10:54:02;;;;;;;5.70;5.43;;;;;;;26.53;51.27;101782.25;6021798;23;20022;-68
2022/06/11 10:56:48;;;;;;;5.80;5.50;;;;;;;26.50;50.95;101775.34;6019602;23;20341;-73
2022/06/11 10:59:24;;;;;;;5.90;5.60;;;;;;;25.74;54.08;101771.34;6020932;23;20030;-72
2022/06/11 11:02:08;;;;;;;5.75;5.50;;;;;;;25.75;53.94;101775.69;6047163;23;20013;-68
2022/06/11 11:04:39;;;;;;;5.90;5.60;;;;;;;24.93;54.16;101772.06;6021080;23;20314;-69
2022/06/11 11:07:10;;;;;;;7.28;6.90;;;;;;;25.30;53.82;101768.53;6047500;23;20123;-69
2022/06/11 11:09:36;;;;;;;6.38;6.00;;;;;;;24.94;56.11;101744.22;6026731;23;20027;-69
2022/06/11 11:12:07;;;;;;;6.82;6.53;;;;;;;25.14;56.10;101728.84;6024136;23;20341;-69
2022/06/11 11:14:42;;;;;;;6.00;5.70;;;;;;;25.22;55.47;101747.78;6024447;23;20038;-72
2022/06/11 11:17:26;;;;;;;5.97;5.68;;;;;;;24.56;55.17;101665.56;6054088;23;20367;-72
2022/06/11 11:22:54;;;;;;;6.00;5.68;;;;;;;25.55;53.42;101737.38;6021057;23;20023;-75
2022/06/11 11:25:28;;;;;;;5.82;5.53;;;;;;;25.19;55.97;101748.03;6049351;23;20015;-75
2022/06/11 11:27:54;;;;;;;7.13;6.72;;;;;;;24.91;55.88;101763.31;6028048;23;20091;-69
2022/06/11 11:30:30;;;;;;;6.03;5.63;;;;;;;25.02;55.74;101756.91;6050277;23;20065;-68
2022/06/11 11:33:21;;;;;;;7.03;6.72;;;;;;;25.68;54.92;101770.09;6019968;23;20391;-71
2022/06/11 11:35:48;;;;;;;5.70;5.40;;;;;;;25.25;55.49;101758.22;6037693;23;20042;-72
2022/06/11 11:38:20;;;;;;;5.57;5.28;;;;;;;25.64;54.45;101755.28;5997204;23;20019;-70
2022/06/11 11:40:53;;;;;;;5.70;5.40;;;;;;;25.05;56.35;101768.19;6023460;23;20081;-75
2022/06/11 11:43:23;;;;;;;5.80;5.50;;;;;;;25.21;56.08;101761.31;5997141;23;20034;-73
2022/06/11 11:45:59;;;;;;;5.72;5.43;;;;;;;25.35;55.83;101751.94;6028742;23;20030;-76
2022/06/11 11:48:35;;;;;;;5.80;5.50;;;;;;;25.35;55.65;101742.03;5996670;23;20446;-73
2022/06/11 11:51:08;;;;;;;6.72;6.43;;;;;;;25.48;51.70;101733.63;6024318;23;20014;-69
2022/06/11 11:53:43;;;;;;;6.25;5.90;;;;;;;25.40;52.93;101738.91;5968089;23;20029;-68
2022/06/11 11:56:26;;;;;;;6.18;5.88;;;;;;;24.87;52.13;101606.19;6007786;23;20479;-69